sensor_id;sensor_type;location;lat;lon;timestamp;P1;durP1;ratioP1;P2;durP2;ratioP2
52468;SDS011;38381;53.688;10.776;2023-06-26T00:02:00;8.10;;;6.85;;
52468;SDS011;38381;53.688;10.776;2023-06-26T00:07:01;7.17;;;6.47;;
52468;SDS011;38381;53.688;10.776;2023-06-26T00:12:01;7.18;;;6.47;;
52468;SDS011;38381;53.688;10.776;2023-06-26T00:17:02;7.28;;;6.57;;
52468;SDS011;38381;53.688;10.776;2023-06-26T00:22:02;7.10;;;6.40;;
52468;SDS011;38381;53.688;10.776;2023-06-26T00:27:04;7.68;;;6.88;;
52468;SDS011;38381;53.688;10.776;2023-06-26T00:32:05;7.40;;;6.70;;
52468;SDS011;38381;53.688;10.776;2023-06-26T00:37:06;7.32;;;6.57;;
52468;SDS011;38381;53.688;10.776;2023-06-26T00:42:07;7.63;;;6.93;;
52468;SDS011;38381;53.688;10.776;2023-06-26T00:47:07;8.40;;;7.60;;
52468;SDS011;38381;53.688;10.776;2023-06-26T00:52:09;7.57;;;6.88;;
52468;SDS011;38381;53.688;10.776;2023-06-26T00:57:10;10.02;;;8.23;;
52468;SDS011;38381;53.688;10.776;2023-06-26T01:02:10;8.45;;;7.65;;
52468;SDS011;38381;53.688;10.776;2023-06-26T01:07:11;9.35;;;8.45;;
52468;SDS011;38381;53.688;10.776;2023-06-26T01:12:11;8.60;;;7.90;;
52468;SDS011;38381;53.688;10.776;2023-06-26T01:17:12;9.50;;;8.55;;
52468;SDS011;38381;53.688;10.776;2023-06-26T01:22:19;10.25;;;8.57;;
52468;SDS011;38381;53.688;10.776;2023-06-26T01:27:27;11.15;;;8.48;;
52468;SDS011;38381;53.688;10.776;2023-06-26T01:32:30;8.30;;;7.60;;
52468;SDS011;38381;53.688;10.776;2023-06-26T01:37:31;9.50;;;8.60;;
52468;SDS011;38381;53.688;10.776;2023-06-26T01:42:35;9.20;;;8.30;;
52468;SDS011;38381;53.688;10.776;2023-06-26T01:47:36;9.27;;;8.32;;
52468;SDS011;38381;53.688;10.776;2023-06-26T01:57:56;9.73;;;8.82;;
52468;SDS011;38381;53.688;10.776;2023-06-26T02:07:58;11.17;;;8.23;;
52468;SDS011;38381;53.688;10.776;2023-06-26T02:13:01;9.85;;;8.60;;
52468;SDS011;38381;53.688;10.776;2023-06-26T02:18:01;8.87;;;8.07;;
52468;SDS011;38381;53.688;10.776;2023-06-26T02:23:02;9.53;;;8.63;;
52468;SDS011;38381;53.688;10.776;2023-06-26T02:28:02;8.47;;;7.67;;
52468;SDS011;38381;53.688;10.776;2023-06-26T02:33:02;8.88;;;8.07;;
52468;SDS011;38381;53.688;10.776;2023-06-26T02:38:03;9.23;;;8.35;;
52468;SDS011;38381;53.688;10.776;2023-06-26T02:43:04;9.70;;;8.60;;
52468;SDS011;38381;53.688;10.776;2023-06-26T02:48:05;9.90;;;8.67;;
52468;SDS011;38381;53.688;10.776;2023-06-26T02:53:05;10.88;;;8.27;;
52468;SDS011;38381;53.688;10.776;2023-06-26T02:58:05;9.18;;;8.23;;
52468;SDS011;38381;53.688;10.776;2023-06-26T03:03:07;9.07;;;8.18;;
52468;SDS011;38381;53.688;10.776;2023-06-26T03:08:07;8.30;;;7.50;;
52468;SDS011;38381;53.688;10.776;2023-06-26T03:13:08;8.30;;;7.50;;
52468;SDS011;38381;53.688;10.776;2023-06-26T03:18:08;9.73;;;7.72;;
52468;SDS011;38381;53.688;10.776;2023-06-26T03:23:09;11.50;;;7.85;;
52468;SDS011;38381;53.688;10.776;2023-06-26T03:28:10;9.40;;;8.60;;
52468;SDS011;38381;53.688;10.776;2023-06-26T03:33:10;8.17;;;7.37;;
52468;SDS011;38381;53.688;10.776;2023-06-26T03:38:11;9.13;;;8.32;;
52468;SDS011;38381;53.688;10.776;2023-06-26T03:43:11;9.25;;;8.35;;
52468;SDS011;38381;53.688;10.776;2023-06-26T03:48:12;10.15;;;8.95;;
52468;SDS011;38381;53.688;10.776;2023-06-26T03:53:12;8.18;;;7.38;;
52468;SDS011;38381;53.688;10.776;2023-06-26T03:58:13;11.23;;;8.32;;
52468;SDS011;38381;53.688;10.776;2023-06-26T04:03:13;9.43;;;8.45;;
52468;SDS011;38381;53.688;10.776;2023-06-26T04:08:14;9.20;;;8.40;;
52468;SDS011;38381;53.688;10.776;2023-06-26T04:13:14;8.63;;;7.67;;
52468;SDS011;38381;53.688;10.776;2023-06-26T04:18:14;8.05;;;7.25;;
52468;SDS011;38381;53.688;10.776;2023-06-26T04:23:15;8.88;;;7.97;;
52468;SDS011;38381;53.688;10.776;2023-06-26T04:28:15;10.00;;;9.00;;
52468;SDS011;38381;53.688;10.776;2023-06-26T04:33:16;9.87;;;8.97;;
52468;SDS011;38381;53.688;10.776;2023-06-26T04:38:16;10.03;;;7.90;;
52468;SDS011;38381;53.688;10.776;2023-06-26T04:43:17;9.48;;;8.57;;
52468;SDS011;38381;53.688;10.776;2023-06-26T04:48:17;8.95;;;7.38;;
52468;SDS011;38381;53.688;10.776;2023-06-26T04:53:18;9.75;;;7.30;;
52468;SDS011;38381;53.688;10.776;2023-06-26T04:58:18;9.77;;;7.95;;
52468;SDS011;38381;53.688;10.776;2023-06-26T05:03:19;9.07;;;8.15;;
52468;SDS011;38381;53.688;10.776;2023-06-26T05:08:24;11.35;;;7.18;;
52468;SDS011;38381;53.688;10.776;2023-06-26T05:13:26;8.00;;;7.25;;
52468;SDS011;38381;53.688;10.776;2023-06-26T05:18:26;7.70;;;6.70;;
52468;SDS011;38381;53.688;10.776;2023-06-26T05:23:27;8.90;;;6.60;;
52468;SDS011;38381;53.688;10.776;2023-06-26T05:28:31;7.97;;;6.97;;
52468;SDS011;38381;53.688;10.776;2023-06-26T05:33:32;9.88;;;7.13;;
52468;SDS011;38381;53.688;10.776;2023-06-26T05:38:35;8.20;;;6.95;;
52468;SDS011;38381;53.688;10.776;2023-06-26T05:43:35;7.05;;;6.32;;
52468;SDS011;38381;53.688;10.776;2023-06-26T05:48:36;7.53;;;6.82;;
52468;SDS011;38381;53.688;10.776;2023-06-26T05:53:36;8.07;;;7.23;;
52468;SDS011;38381;53.688;10.776;2023-06-26T05:58:37;8.47;;;7.67;;
52468;SDS011;38381;53.688;10.776;2023-06-26T06:03:38;7.15;;;6.53;;
52468;SDS011;38381;53.688;10.776;2023-06-26T06:08:39;7.47;;;6.55;;
52468;SDS011;38381;53.688;10.776;2023-06-26T06:13:40;6.97;;;6.27;;
52468;SDS011;38381;53.688;10.776;2023-06-26T06:18:40;6.37;;;5.50;;
52468;SDS011;38381;53.688;10.776;2023-06-26T06:23:40;6.23;;;5.30;;
52468;SDS011;38381;53.688;10.776;2023-06-26T06:28:41;6.90;;;6.00;;
52468;SDS011;38381;53.688;10.776;2023-06-26T06:33:41;7.97;;;5.83;;
52468;SDS011;38381;53.688;10.776;2023-06-26T06:38:42;8.07;;;5.77;;
52468;SDS011;38381;53.688;10.776;2023-06-26T06:43:43;7.03;;;5.45;;
52468;SDS011;38381;53.688;10.776;2023-06-26T06:48:44;8.27;;;5.67;;
52468;SDS011;38381;53.688;10.776;2023-06-26T06:53:46;5.82;;;5.15;;
52468;SDS011;38381;53.688;10.776;2023-06-26T06:58:47;7.57;;;6.03;;
52468;SDS011;38381;53.688;10.776;2023-06-26T07:03:47;5.00;;;4.60;;
52468;SDS011;38381;53.688;10.776;2023-06-26T07:08:47;8.03;;;6.33;;
52468;SDS011;38381;53.688;10.776;2023-06-26T07:13:48;6.10;;;5.50;;
52468;SDS011;38381;53.688;10.776;2023-06-26T07:18:48;8.40;;;5.37;;
52468;SDS011;38381;53.688;10.776;2023-06-26T07:23:50;6.22;;;5.63;;
52468;SDS011;38381;53.688;10.776;2023-06-26T07:28:50;7.37;;;5.87;;
52468;SDS011;38381;53.688;10.776;2023-06-26T07:33:51;5.30;;;4.27;;
52468;SDS011;38381;53.688;10.776;2023-06-26T07:38:51;5.80;;;5.27;;
52468;SDS011;38381;53.688;10.776;2023-06-26T07:43:51;6.00;;;5.40;;
52468;SDS011;38381;53.688;10.776;2023-06-26T07:48:52;5.27;;;4.77;;
52468;SDS011;38381;53.688;10.776;2023-06-26T07:53:53;5.65;;;5.05;;
52468;SDS011;38381;53.688;10.776;2023-06-26T07:58:53;4.93;;;4.53;;
52468;SDS011;38381;53.688;10.776;2023-06-26T08:03:54;5.93;;;5.33;;
52468;SDS011;38381;53.688;10.776;2023-06-26T08:08:54;5.77;;;4.57;;
52468;SDS011;38381;53.688;10.776;2023-06-26T08:13:55;6.23;;;4.90;;
52468;SDS011;38381;53.688;10.776;2023-06-26T08:18:55;5.47;;;4.97;;
52468;SDS011;38381;53.688;10.776;2023-06-26T08:23:56;5.67;;;4.73;;
52468;SDS011;38381;53.688;10.776;2023-06-26T08:28:56;6.67;;;5.70;;
52468;SDS011;38381;53.688;10.776;2023-06-26T08:33:56;5.37;;;4.90;;
52468;SDS011;38381;53.688;10.776;2023-06-26T08:38:57;6.47;;;5.07;;
52468;SDS011;38381;53.688;10.776;2023-06-26T08:43:58;6.30;;;4.70;;
52468;SDS011;38381;53.688;10.776;2023-06-26T08:49:05;6.43;;;5.27;;
52468;SDS011;38381;53.688;10.776;2023-06-26T08:54:34;5.55;;;5.03;;
52468;SDS011;38381;53.688;10.776;2023-06-26T08:59:41;6.53;;;5.33;;
52468;SDS011;38381;53.688;10.776;2023-06-26T09:04:41;6.23;;;5.63;;
52468;SDS011;38381;53.688;10.776;2023-06-26T09:09:42;7.73;;;4.90;;
52468;SDS011;38381;53.688;10.776;2023-06-26T09:14:43;5.35;;;4.85;;
52468;SDS011;38381;53.688;10.776;2023-06-26T09:19:45;5.57;;;4.97;;
52468;SDS011;38381;53.688;10.776;2023-06-26T09:24:46;5.85;;;5.35;;
52468;SDS011;38381;53.688;10.776;2023-06-26T09:29:47;4.87;;;4.37;;
52468;SDS011;38381;53.688;10.776;2023-06-26T09:34:48;7.45;;;4.95;;
52468;SDS011;38381;53.688;10.776;2023-06-26T09:39:52;4.82;;;4.32;;
52468;SDS011;38381;53.688;10.776;2023-06-26T09:44:53;9.47;;;4.83;;
52468;SDS011;38381;53.688;10.776;2023-06-26T09:55:16;4.38;;;3.83;;
52468;SDS011;38381;53.688;10.776;2023-06-26T10:00:16;5.22;;;4.57;;
52468;SDS011;38381;53.688;10.776;2023-06-26T10:05:17;5.95;;;5.13;;
52468;SDS011;38381;53.688;10.776;2023-06-26T10:10:18;6.53;;;5.55;;
52468;SDS011;38381;53.688;10.776;2023-06-26T10:15:20;6.75;;;5.07;;
52468;SDS011;38381;53.688;10.776;2023-06-26T10:20:23;6.78;;;5.60;;
52468;SDS011;38381;53.688;10.776;2023-06-26T10:25:26;6.97;;;6.20;;
52468;SDS011;38381;53.688;10.776;2023-06-26T10:30:28;6.50;;;5.50;;
52468;SDS011;38381;53.688;10.776;2023-06-26T10:35:33;7.03;;;6.00;;
52468;SDS011;38381;53.688;10.776;2023-06-26T10:40:42;10.98;;;8.32;;
52468;SDS011;38381;53.688;10.776;2023-06-26T10:45:48;10.05;;;7.72;;
52468;SDS011;38381;53.688;10.776;2023-06-26T10:50:54;9.98;;;7.68;;
52468;SDS011;38381;53.688;10.776;2023-06-26T10:55:55;10.67;;;6.33;;
52468;SDS011;38381;53.688;10.776;2023-06-26T11:06:40;9.40;;;5.57;;
52468;SDS011;38381;53.688;10.776;2023-06-26T11:16:56;10.23;;;5.85;;
52468;SDS011;38381;53.688;10.776;2023-06-26T11:22:03;9.13;;;6.25;;
52468;SDS011;38381;53.688;10.776;2023-06-26T11:27:05;7.68;;;6.10;;
52468;SDS011;38381;53.688;10.776;2023-06-26T11:32:05;10.07;;;7.70;;
52468;SDS011;38381;53.688;10.776;2023-06-26T11:37:06;10.50;;;8.53;;
52468;SDS011;38381;53.688;10.776;2023-06-26T11:42:07;8.17;;;7.33;;
52468;SDS011;38381;53.688;10.776;2023-06-26T11:47:14;9.60;;;8.60;;
52468;SDS011;38381;53.688;10.776;2023-06-26T11:52:15;11.80;;;8.68;;
52468;SDS011;38381;53.688;10.776;2023-06-26T11:57:16;7.43;;;6.72;;
52468;SDS011;38381;53.688;10.776;2023-06-26T12:02:17;8.40;;;7.60;;
52468;SDS011;38381;53.688;10.776;2023-06-26T12:07:18;7.78;;;7.07;;
52468;SDS011;38381;53.688;10.776;2023-06-26T12:12:19;7.22;;;6.53;;
52468;SDS011;38381;53.688;10.776;2023-06-26T12:17:22;7.97;;;7.22;;
52468;SDS011;38381;53.688;10.776;2023-06-26T12:22:23;7.25;;;6.53;;
52468;SDS011;38381;53.688;10.776;2023-06-26T12:27:24;8.23;;;7.43;;
52468;SDS011;38381;53.688;10.776;2023-06-26T12:32:25;6.97;;;5.80;;
52468;SDS011;38381;53.688;10.776;2023-06-26T12:37:26;7.15;;;5.85;;
52468;SDS011;38381;53.688;10.776;2023-06-26T12:42:27;6.28;;;4.65;;
52468;SDS011;38381;53.688;10.776;2023-06-26T12:47:28;5.20;;;3.17;;
52468;SDS011;38381;53.688;10.776;2023-06-26T12:52:31;6.10;;;2.95;;
52468;SDS011;38381;53.688;10.776;2023-06-26T12:57:31;5.57;;;2.72;;
52468;SDS011;38381;53.688;10.776;2023-06-26T13:02:32;5.27;;;2.87;;
52468;SDS011;38381;53.688;10.776;2023-06-26T13:07:32;4.20;;;2.33;;
52468;SDS011;38381;53.688;10.776;2023-06-26T13:12:32;4.33;;;1.90;;
52468;SDS011;38381;53.688;10.776;2023-06-26T13:17:33;5.80;;;3.00;;
52468;SDS011;38381;53.688;10.776;2023-06-26T13:22:34;3.55;;;2.53;;
52468;SDS011;38381;53.688;10.776;2023-06-26T13:27:35;6.80;;;2.37;;
52468;SDS011;38381;53.688;10.776;2023-06-26T13:32:35;3.42;;;2.83;;
52468;SDS011;38381;53.688;10.776;2023-06-26T13:37:36;3.37;;;2.30;;
52468;SDS011;38381;53.688;10.776;2023-06-26T13:42:36;3.33;;;2.47;;
52468;SDS011;38381;53.688;10.776;2023-06-26T13:47:37;4.32;;;2.33;;
52468;SDS011;38381;53.688;10.776;2023-06-26T13:52:41;5.72;;;2.47;;
52468;SDS011;38381;53.688;10.776;2023-06-26T13:57:41;4.30;;;2.53;;
52468;SDS011;38381;53.688;10.776;2023-06-26T14:02:41;6.82;;;2.50;;
52468;SDS011;38381;53.688;10.776;2023-06-26T14:07:42;3.45;;;1.83;;
52468;SDS011;38381;53.688;10.776;2023-06-26T14:12:43;6.27;;;2.10;;
52468;SDS011;38381;53.688;10.776;2023-06-26T14:17:44;3.33;;;2.05;;
52468;SDS011;38381;53.688;10.776;2023-06-26T14:22:44;5.00;;;2.17;;
52468;SDS011;38381;53.688;10.776;2023-06-26T14:27:45;3.67;;;2.22;;
52468;SDS011;38381;53.688;10.776;2023-06-26T14:32:45;4.07;;;2.20;;
52468;SDS011;38381;53.688;10.776;2023-06-26T14:37:47;4.63;;;2.57;;
52468;SDS011;38381;53.688;10.776;2023-06-26T14:42:48;3.42;;;2.40;;
52468;SDS011;38381;53.688;10.776;2023-06-26T14:47:48;4.65;;;1.90;;
52468;SDS011;38381;53.688;10.776;2023-06-26T14:52:48;2.17;;;1.58;;
52468;SDS011;38381;53.688;10.776;2023-06-26T14:57:49;4.60;;;1.75;;
52468;SDS011;38381;53.688;10.776;2023-06-26T15:02:49;2.25;;;1.42;;
52468;SDS011;38381;53.688;10.776;2023-06-26T15:07:53;13.10;;;2.20;;
52468;SDS011;38381;53.688;10.776;2023-06-26T15:12:53;2.65;;;1.88;;
52468;SDS011;38381;53.688;10.776;2023-06-26T15:17:54;3.63;;;2.13;;
52468;SDS011;38381;53.688;10.776;2023-06-26T15:22:54;3.30;;;1.90;;
52468;SDS011;38381;53.688;10.776;2023-06-26T15:27:54;2.13;;;1.67;;
52468;SDS011;38381;53.688;10.776;2023-06-26T15:32:55;5.72;;;1.95;;
52468;SDS011;38381;53.688;10.776;2023-06-26T15:37:55;3.50;;;1.80;;
52468;SDS011;38381;53.688;10.776;2023-06-26T15:42:56;3.93;;;1.70;;
52468;SDS011;38381;53.688;10.776;2023-06-26T15:47:56;2.38;;;1.30;;
52468;SDS011;38381;53.688;10.776;2023-06-26T15:52:56;3.47;;;1.52;;
52468;SDS011;38381;53.688;10.776;2023-06-26T15:57:57;4.10;;;1.63;;
52468;SDS011;38381;53.688;10.776;2023-06-26T16:02:57;3.28;;;1.85;;
52468;SDS011;38381;53.688;10.776;2023-06-26T16:07:58;3.07;;;1.97;;
52468;SDS011;38381;53.688;10.776;2023-06-26T16:12:58;3.97;;;1.60;;
52468;SDS011;38381;53.688;10.776;2023-06-26T16:17:58;4.80;;;2.40;;
52468;SDS011;38381;53.688;10.776;2023-06-26T16:22:59;3.30;;;1.80;;
52468;SDS011;38381;53.688;10.776;2023-06-26T16:27:59;3.00;;;1.87;;
52468;SDS011;38381;53.688;10.776;2023-06-26T16:33:00;4.00;;;2.43;;
52468;SDS011;38381;53.688;10.776;2023-06-26T16:38:00;3.03;;;1.83;;
52468;SDS011;38381;53.688;10.776;2023-06-26T16:43:02;2.92;;;1.80;;
52468;SDS011;38381;53.688;10.776;2023-06-26T16:48:03;2.88;;;1.67;;
52468;SDS011;38381;53.688;10.776;2023-06-26T16:53:04;2.50;;;1.40;;
52468;SDS011;38381;53.688;10.776;2023-06-26T16:58:05;3.10;;;1.77;;
52468;SDS011;38381;53.688;10.776;2023-06-26T17:03:05;5.07;;;1.53;;
52468;SDS011;38381;53.688;10.776;2023-06-26T17:08:06;6.55;;;2.03;;
52468;SDS011;38381;53.688;10.776;2023-06-26T17:13:07;3.20;;;1.83;;
52468;SDS011;38381;53.688;10.776;2023-06-26T17:18:08;4.18;;;1.90;;
52468;SDS011;38381;53.688;10.776;2023-06-26T17:23:09;2.20;;;1.88;;
52468;SDS011;38381;53.688;10.776;2023-06-26T17:28:09;2.53;;;1.63;;
52468;SDS011;38381;53.688;10.776;2023-06-26T17:33:09;4.53;;;1.80;;
52468;SDS011;38381;53.688;10.776;2023-06-26T17:38:10;3.15;;;1.92;;
52468;SDS011;38381;53.688;10.776;2023-06-26T17:43:11;4.45;;;2.22;;
52468;SDS011;38381;53.688;10.776;2023-06-26T17:48:11;2.13;;;1.77;;
52468;SDS011;38381;53.688;10.776;2023-06-26T17:53:12;2.20;;;1.70;;
52468;SDS011;38381;53.688;10.776;2023-06-26T17:58:12;3.57;;;2.40;;
52468;SDS011;38381;53.688;10.776;2023-06-26T18:03:13;4.88;;;2.42;;
52468;SDS011;38381;53.688;10.776;2023-06-26T18:08:13;7.47;;;2.30;;
52468;SDS011;38381;53.688;10.776;2023-06-26T18:13:13;7.13;;;2.00;;
52468;SDS011;38381;53.688;10.776;2023-06-26T18:18:14;5.15;;;2.70;;
52468;SDS011;38381;53.688;10.776;2023-06-26T18:23:15;5.32;;;2.13;;
52468;SDS011;38381;53.688;10.776;2023-06-26T18:28:15;2.87;;;2.43;;
52468;SDS011;38381;53.688;10.776;2023-06-26T18:33:16;8.38;;;2.97;;
52468;SDS011;38381;53.688;10.776;2023-06-26T18:38:16;4.82;;;2.30;;
52468;SDS011;38381;53.688;10.776;2023-06-26T18:43:16;6.53;;;2.87;;
52468;SDS011;38381;53.688;10.776;2023-06-26T18:48:17;4.03;;;2.35;;
52468;SDS011;38381;53.688;10.776;2023-06-26T18:53:17;3.90;;;2.65;;
52468;SDS011;38381;53.688;10.776;2023-06-26T18:58:18;5.10;;;2.65;;
52468;SDS011;38381;53.688;10.776;2023-06-26T19:03:19;3.35;;;2.83;;
52468;SDS011;38381;53.688;10.776;2023-06-26T19:08:19;5.38;;;2.90;;
52468;SDS011;38381;53.688;10.776;2023-06-26T19:13:20;3.72;;;1.85;;
52468;SDS011;38381;53.688;10.776;2023-06-26T19:18:20;6.35;;;2.58;;
52468;SDS011;38381;53.688;10.776;2023-06-26T19:23:21;6.55;;;2.17;;
52468;SDS011;38381;53.688;10.776;2023-06-26T19:28:22;3.70;;;2.42;;
52468;SDS011;38381;53.688;10.776;2023-06-26T19:33:22;3.63;;;2.40;;
52468;SDS011;38381;53.688;10.776;2023-06-26T19:38:22;5.37;;;2.00;;
52468;SDS011;38381;53.688;10.776;2023-06-26T19:43:23;5.45;;;2.35;;
52468;SDS011;38381;53.688;10.776;2023-06-26T19:48:23;6.18;;;2.08;;
52468;SDS011;38381;53.688;10.776;2023-06-26T19:53:27;4.43;;;2.20;;
52468;SDS011;38381;53.688;10.776;2023-06-26T19:58:28;5.47;;;2.20;;
52468;SDS011;38381;53.688;10.776;2023-06-26T20:03:28;3.77;;;2.20;;
52468;SDS011;38381;53.688;10.776;2023-06-26T20:08:28;3.07;;;1.80;;
52468;SDS011;38381;53.688;10.776;2023-06-26T20:13:30;2.30;;;2.03;;
52468;SDS011;38381;53.688;10.776;2023-06-26T20:18:30;2.63;;;1.58;;
52468;SDS011;38381;53.688;10.776;2023-06-26T20:23:31;5.00;;;2.13;;
52468;SDS011;38381;53.688;10.776;2023-06-26T20:28:31;3.65;;;2.25;;
52468;SDS011;38381;53.688;10.776;2023-06-26T20:33:32;2.72;;;2.00;;
52468;SDS011;38381;53.688;10.776;2023-06-26T20:38:32;4.50;;;2.30;;
52468;SDS011;38381;53.688;10.776;2023-06-26T20:43:33;5.93;;;2.37;;
52468;SDS011;38381;53.688;10.776;2023-06-26T20:48:33;5.45;;;1.95;;
52468;SDS011;38381;53.688;10.776;2023-06-26T20:53:35;6.20;;;2.50;;
52468;SDS011;38381;53.688;10.776;2023-06-26T20:58:35;4.05;;;2.38;;
52468;SDS011;38381;53.688;10.776;2023-06-26T21:03:36;6.00;;;3.13;;
52468;SDS011;38381;53.688;10.776;2023-06-26T21:08:36;4.23;;;2.40;;
52468;SDS011;38381;53.688;10.776;2023-06-26T21:13:36;6.30;;;2.77;;
52468;SDS011;38381;53.688;10.776;2023-06-26T21:18:37;5.32;;;2.67;;
52468;SDS011;38381;53.688;10.776;2023-06-26T21:23:37;4.78;;;2.92;;
52468;SDS011;38381;53.688;10.776;2023-06-26T21:28:38;8.27;;;3.03;;
52468;SDS011;38381;53.688;10.776;2023-06-26T21:33:38;8.00;;;3.33;;
52468;SDS011;38381;53.688;10.776;2023-06-26T21:38:40;7.25;;;3.40;;
52468;SDS011;38381;53.688;10.776;2023-06-26T21:43:41;5.20;;;3.30;;
52468;SDS011;38381;53.688;10.776;2023-06-26T21:48:42;11.30;;;3.33;;
52468;SDS011;38381;53.688;10.776;2023-06-26T21:53:43;9.03;;;4.07;;
52468;SDS011;38381;53.688;10.776;2023-06-26T21:58:43;7.05;;;3.78;;
52468;SDS011;38381;53.688;10.776;2023-06-26T22:03:44;6.63;;;4.30;;
52468;SDS011;38381;53.688;10.776;2023-06-26T22:08:44;5.57;;;3.30;;
52468;SDS011;38381;53.688;10.776;2023-06-26T22:13:45;4.45;;;3.05;;
52468;SDS011;38381;53.688;10.776;2023-06-26T22:18:45;9.48;;;4.35;;
52468;SDS011;38381;53.688;10.776;2023-06-26T22:23:46;6.13;;;3.95;;
52468;SDS011;38381;53.688;10.776;2023-06-26T22:28:46;9.57;;;4.18;;
52468;SDS011;38381;53.688;10.776;2023-06-26T22:33:47;6.43;;;3.50;;
52468;SDS011;38381;53.688;10.776;2023-06-26T22:38:47;10.13;;;3.28;;
52468;SDS011;38381;53.688;10.776;2023-06-26T22:43:48;12.45;;;3.65;;
52468;SDS011;38381;53.688;10.776;2023-06-26T22:48:48;5.22;;;3.75;;
52468;SDS011;38381;53.688;10.776;2023-06-26T22:53:48;10.23;;;3.40;;
52468;SDS011;38381;53.688;10.776;2023-06-26T22:58:49;10.23;;;3.67;;
52468;SDS011;38381;53.688;10.776;2023-06-26T23:03:49;10.90;;;2.80;;
52468;SDS011;38381;53.688;10.776;2023-06-26T23:08:49;11.33;;;3.70;;
52468;SDS011;38381;53.688;10.776;2023-06-26T23:13:51;12.65;;;4.85;;
52468;SDS011;38381;53.688;10.776;2023-06-26T23:18:52;7.30;;;4.03;;
52468;SDS011;38381;53.688;10.776;2023-06-26T23:23:54;8.95;;;3.88;;
52468;SDS011;38381;53.688;10.776;2023-06-26T23:28:57;7.18;;;3.47;;
52468;SDS011;38381;53.688;10.776;2023-06-26T23:33:58;6.13;;;3.97;;
52468;SDS011;38381;53.688;10.776;2023-06-26T23:38:58;10.50;;;5.10;;
52468;SDS011;38381;53.688;10.776;2023-06-26T23:43:59;5.72;;;3.55;;
52468;SDS011;38381;53.688;10.776;2023-06-26T23:48:59;10.02;;;5.07;;
52468;SDS011;38381;53.688;10.776;2023-06-26T23:53:59;6.28;;;4.15;;
52468;SDS011;38381;53.688;10.776;2023-06-26T23:59:00;8.15;;;4.75;;
